sensor_id;sensor_type;location;lat;lon;timestamp;P1;durP1;ratioP1;P2;durP2;ratioP2
80117;SDS011;69424;48.770;-1.564;2024-03-22T00:00:08;11.70;;;7.40;;
80117;SDS011;69424;48.770;-1.564;2024-03-22T00:01:19;12.60;;;7.30;;
80117;SDS011;69424;48.770;-1.564;2024-03-22T00:02:07;14.90;;;7.20;;
80117;SDS011;69424;48.770;-1.564;2024-03-22T00:02:59;13.20;;;7.00;;
80117;SDS011;69424;48.770;-1.564;2024-03-22T00:03:46;14.70;;;8.70;;
80117;SDS011;69424;48.770;-1.564;2024-03-22T00:04:35;13.60;;;7.20;;
80117;SDS011;69424;48.770;-1.564;2024-03-22T00:05:23;16.60;;;7.40;;
80117;SDS011;69424;48.770;-1.564;2024-03-22T00:06:11;13.60;;;7.30;;
80117;SDS011;69424;48.770;-1.564;2024-03-22T00:06:59;11.40;;;7.80;;
80117;SDS011;69424;48.770;-1.564;2024-03-22T00:07:47;13.10;;;7.70;;
80117;SDS011;69424;48.770;-1.564;2024-03-22T00:08:35;13.60;;;7.20;;
80117;SDS011;69424;48.770;-1.564;2024-03-22T00:09:23;11.20;;;7.30;;
80117;SDS011;69424;48.770;-1.564;2024-03-22T00:10:11;13.10;;;7.00;;
80117;SDS011;69424;48.770;-1.564;2024-03-22T00:10:58;13.90;;;7.00;;
80117;SDS011;69424;48.770;-1.564;2024-03-22T00:11:46;11.10;;;7.30;;
80117;SDS011;69424;48.770;-1.564;2024-03-22T00:12:34;11.50;;;7.70;;
80117;SDS011;69424;48.770;-1.564;2024-03-22T00:13:22;13.60;;;7.30;;
80117;SDS011;69424;48.770;-1.564;2024-03-22T00:14:11;11.00;;;7.10;;
80117;SDS011;69424;48.770;-1.564;2024-03-22T00:14:59;12.00;;;7.10;;
80117;SDS011;69424;48.770;-1.564;2024-03-22T00:15:47;12.90;;;7.10;;
80117;SDS011;69424;48.770;-1.564;2024-03-22T00:16:34;12.70;;;6.70;;
80117;SDS011;69424;48.770;-1.564;2024-03-22T00:17:23;11.50;;;6.80;;
80117;SDS011;69424;48.770;-1.564;2024-03-22T00:18:11;11.70;;;7.00;;
80117;SDS011;69424;48.770;-1.564;2024-03-22T00:18:59;10.40;;;6.70;;
80117;SDS011;69424;48.770;-1.564;2024-03-22T00:19:47;10.50;;;6.20;;
80117;SDS011;69424;48.770;-1.564;2024-03-22T00:20:35;11.80;;;7.00;;
80117;SDS011;69424;48.770;-1.564;2024-03-22T00:21:23;10.70;;;6.50;;
80117;SDS011;69424;48.770;-1.564;2024-03-22T00:22:11;10.60;;;6.30;;
80117;SDS011;69424;48.770;-1.564;2024-03-22T00:22:59;9.90;;;6.30;;
80117;SDS011;69424;48.770;-1.564;2024-03-22T00:23:46;9.30;;;6.00;;
80117;SDS011;69424;48.770;-1.564;2024-03-22T00:24:34;10.40;;;6.30;;
80117;SDS011;69424;48.770;-1.564;2024-03-22T00:25:22;9.80;;;5.90;;
80117;SDS011;69424;48.770;-1.564;2024-03-22T00:26:10;10.60;;;5.80;;
80117;SDS011;69424;48.770;-1.564;2024-03-22T00:26:58;10.90;;;6.80;;
80117;SDS011;69424;48.770;-1.564;2024-03-22T00:27:46;13.00;;;6.20;;
80117;SDS011;69424;48.770;-1.564;2024-03-22T00:28:34;11.20;;;6.70;;
80117;SDS011;69424;48.770;-1.564;2024-03-22T00:29:22;9.00;;;6.00;;
80117;SDS011;69424;48.770;-1.564;2024-03-22T00:30:10;13.10;;;7.00;;
80117;SDS011;69424;48.770;-1.564;2024-03-22T00:30:58;12.00;;;6.20;;
80117;SDS011;69424;48.770;-1.564;2024-03-22T00:31:46;9.40;;;5.50;;
80117;SDS011;69424;48.770;-1.564;2024-03-22T00:32:34;10.20;;;5.80;;
80117;SDS011;69424;48.770;-1.564;2024-03-22T00:33:21;9.90;;;6.00;;
80117;SDS011;69424;48.770;-1.564;2024-03-22T00:34:09;8.90;;;6.10;;
80117;SDS011;69424;48.770;-1.564;2024-03-22T00:34:57;8.70;;;5.40;;
80117;SDS011;69424;48.770;-1.564;2024-03-22T00:35:45;9.10;;;5.90;;
80117;SDS011;69424;48.770;-1.564;2024-03-22T00:36:33;8.20;;;5.50;;
80117;SDS011;69424;48.770;-1.564;2024-03-22T00:37:21;7.80;;;5.50;;
80117;SDS011;69424;48.770;-1.564;2024-03-22T00:38:08;8.90;;;5.60;;
80117;SDS011;69424;48.770;-1.564;2024-03-22T00:38:56;11.20;;;5.50;;
80117;SDS011;69424;48.770;-1.564;2024-03-22T00:39:44;8.80;;;5.60;;
80117;SDS011;69424;48.770;-1.564;2024-03-22T00:40:32;8.00;;;5.30;;
80117;SDS011;69424;48.770;-1.564;2024-03-22T00:41:20;9.30;;;5.30;;
80117;SDS011;69424;48.770;-1.564;2024-03-22T00:42:08;7.40;;;4.80;;
80117;SDS011;69424;48.770;-1.564;2024-03-22T00:42:56;7.90;;;5.40;;
80117;SDS011;69424;48.770;-1.564;2024-03-22T00:43:46;8.60;;;5.30;;
80117;SDS011;69424;48.770;-1.564;2024-03-22T00:44:33;9.80;;;5.60;;
80117;SDS011;69424;48.770;-1.564;2024-03-22T00:45:21;8.20;;;5.00;;
80117;SDS011;69424;48.770;-1.564;2024-03-22T00:46:09;8.60;;;5.30;;
80117;SDS011;69424;48.770;-1.564;2024-03-22T00:46:57;8.00;;;5.30;;
80117;SDS011;69424;48.770;-1.564;2024-03-22T00:47:45;8.40;;;5.10;;
80117;SDS011;69424;48.770;-1.564;2024-03-22T00:48:33;7.20;;;4.60;;
80117;SDS011;69424;48.770;-1.564;2024-03-22T00:49:22;8.80;;;4.60;;
80117;SDS011;69424;48.770;-1.564;2024-03-22T00:50:10;10.10;;;5.70;;
80117;SDS011;69424;48.770;-1.564;2024-03-22T00:51:00;8.80;;;4.90;;
80117;SDS011;69424;48.770;-1.564;2024-03-22T00:51:48;8.20;;;5.10;;
80117;SDS011;69424;48.770;-1.564;2024-03-22T00:52:35;6.60;;;4.60;;
80117;SDS011;69424;48.770;-1.564;2024-03-22T00:53:23;9.50;;;5.30;;
80117;SDS011;69424;48.770;-1.564;2024-03-22T00:54:11;8.50;;;5.00;;
80117;SDS011;69424;48.770;-1.564;2024-03-22T00:54:59;9.00;;;5.30;;
80117;SDS011;69424;48.770;-1.564;2024-03-22T00:55:47;8.90;;;5.00;;
80117;SDS011;69424;48.770;-1.564;2024-03-22T00:56:38;9.30;;;5.20;;
80117;SDS011;69424;48.770;-1.564;2024-03-22T00:57:26;9.50;;;5.30;;
80117;SDS011;69424;48.770;-1.564;2024-03-22T00:58:14;11.20;;;5.30;;
80117;SDS011;69424;48.770;-1.564;2024-03-22T00:59:02;10.40;;;5.60;;
80117;SDS011;69424;48.770;-1.564;2024-03-22T00:59:49;9.60;;;5.60;;
80117;SDS011;69424;48.770;-1.564;2024-03-22T01:00:37;8.90;;;6.00;;
80117;SDS011;69424;48.770;-1.564;2024-03-22T01:01:27;8.70;;;5.30;;
80117;SDS011;69424;48.770;-1.564;2024-03-22T01:02:15;9.50;;;5.20;;
80117;SDS011;69424;48.770;-1.564;2024-03-22T01:03:03;8.30;;;5.30;;
80117;SDS011;69424;48.770;-1.564;2024-03-22T01:03:52;11.10;;;6.20;;
80117;SDS011;69424;48.770;-1.564;2024-03-22T01:04:39;11.20;;;5.80;;
80117;SDS011;69424;48.770;-1.564;2024-03-22T01:05:27;9.10;;;5.50;;
80117;SDS011;69424;48.770;-1.564;2024-03-22T01:06:15;11.10;;;6.50;;
80117;SDS011;69424;48.770;-1.564;2024-03-22T01:07:03;10.20;;;5.80;;
80117;SDS011;69424;48.770;-1.564;2024-03-22T01:07:51;8.80;;;5.50;;
80117;SDS011;69424;48.770;-1.564;2024-03-22T01:08:38;8.60;;;5.80;;
80117;SDS011;69424;48.770;-1.564;2024-03-22T01:09:26;9.80;;;6.20;;
80117;SDS011;69424;48.770;-1.564;2024-03-22T01:10:14;10.20;;;5.50;;
80117;SDS011;69424;48.770;-1.564;2024-03-22T01:11:02;9.90;;;6.20;;
80117;SDS011;69424;48.770;-1.564;2024-03-22T01:11:50;10.10;;;5.50;;
80117;SDS011;69424;48.770;-1.564;2024-03-22T01:12:38;10.20;;;5.80;;
80117;SDS011;69424;48.770;-1.564;2024-03-22T01:13:27;10.90;;;6.40;;
80117;SDS011;69424;48.770;-1.564;2024-03-22T01:14:15;11.10;;;6.50;;
80117;SDS011;69424;48.770;-1.564;2024-03-22T01:15:03;10.00;;;6.10;;
80117;SDS011;69424;48.770;-1.564;2024-03-22T01:15:51;11.80;;;6.40;;
80117;SDS011;69424;48.770;-1.564;2024-03-22T01:16:39;10.20;;;5.60;;
80117;SDS011;69424;48.770;-1.564;2024-03-22T01:17:29;11.00;;;6.30;;
80117;SDS011;69424;48.770;-1.564;2024-03-22T01:18:16;11.60;;;6.40;;
80117;SDS011;69424;48.770;-1.564;2024-03-22T01:19:04;9.80;;;5.40;;
80117;SDS011;69424;48.770;-1.564;2024-03-22T01:19:52;9.40;;;5.10;;
80117;SDS011;69424;48.770;-1.564;2024-03-22T01:20:40;9.60;;;6.10;;
80117;SDS011;69424;48.770;-1.564;2024-03-22T01:21:29;9.70;;;5.30;;
80117;SDS011;69424;48.770;-1.564;2024-03-22T01:22:17;9.20;;;5.20;;
80117;SDS011;69424;48.770;-1.564;2024-03-22T01:23:05;7.80;;;5.20;;
80117;SDS011;69424;48.770;-1.564;2024-03-22T01:23:53;10.60;;;5.10;;
80117;SDS011;69424;48.770;-1.564;2024-03-22T01:24:41;8.50;;;4.70;;
80117;SDS011;69424;48.770;-1.564;2024-03-22T01:25:29;10.40;;;5.70;;
80117;SDS011;69424;48.770;-1.564;2024-03-22T01:26:17;8.00;;;5.20;;
80117;SDS011;69424;48.770;-1.564;2024-03-22T01:27:05;9.80;;;5.40;;
80117;SDS011;69424;48.770;-1.564;2024-03-22T01:27:53;9.10;;;5.30;;
80117;SDS011;69424;48.770;-1.564;2024-03-22T01:28:42;8.00;;;4.80;;
80117;SDS011;69424;48.770;-1.564;2024-03-22T01:29:30;7.50;;;4.90;;
80117;SDS011;69424;48.770;-1.564;2024-03-22T01:30:19;7.20;;;5.10;;
80117;SDS011;69424;48.770;-1.564;2024-03-22T01:31:07;9.90;;;5.60;;
80117;SDS011;69424;48.770;-1.564;2024-03-22T01:31:54;8.70;;;4.90;;
80117;SDS011;69424;48.770;-1.564;2024-03-22T01:32:42;8.80;;;5.40;;
80117;SDS011;69424;48.770;-1.564;2024-03-22T01:33:30;8.90;;;6.10;;
80117;SDS011;69424;48.770;-1.564;2024-03-22T01:34:18;10.50;;;5.60;;
80117;SDS011;69424;48.770;-1.564;2024-03-22T01:35:07;8.70;;;5.30;;
80117;SDS011;69424;48.770;-1.564;2024-03-22T01:35:56;10.20;;;5.80;;
80117;SDS011;69424;48.770;-1.564;2024-03-22T01:36:43;10.10;;;5.20;;
80117;SDS011;69424;48.770;-1.564;2024-03-22T01:37:31;8.40;;;5.30;;
80117;SDS011;69424;48.770;-1.564;2024-03-22T01:38:19;8.50;;;4.80;;
80117;SDS011;69424;48.770;-1.564;2024-03-22T01:39:07;10.10;;;5.60;;
80117;SDS011;69424;48.770;-1.564;2024-03-22T01:39:55;11.10;;;5.80;;
80117;SDS011;69424;48.770;-1.564;2024-03-22T01:40:43;9.70;;;5.10;;
80117;SDS011;69424;48.770;-1.564;2024-03-22T01:41:31;8.40;;;5.60;;
80117;SDS011;69424;48.770;-1.564;2024-03-22T01:42:18;9.20;;;5.70;;
80117;SDS011;69424;48.770;-1.564;2024-03-22T01:43:06;9.50;;;5.50;;
80117;SDS011;69424;48.770;-1.564;2024-03-22T01:43:54;8.40;;;4.70;;
80117;SDS011;69424;48.770;-1.564;2024-03-22T01:44:42;10.80;;;5.10;;
80117;SDS011;69424;48.770;-1.564;2024-03-22T01:45:31;7.70;;;5.60;;
80117;SDS011;69424;48.770;-1.564;2024-03-22T01:46:21;11.70;;;5.90;;
80117;SDS011;69424;48.770;-1.564;2024-03-22T01:47:09;9.60;;;6.00;;
80117;SDS011;69424;48.770;-1.564;2024-03-22T01:47:57;8.60;;;4.80;;
80117;SDS011;69424;48.770;-1.564;2024-03-22T01:48:47;9.50;;;5.50;;
80117;SDS011;69424;48.770;-1.564;2024-03-22T01:49:35;9.80;;;5.70;;
80117;SDS011;69424;48.770;-1.564;2024-03-22T01:50:23;9.20;;;5.10;;
80117;SDS011;69424;48.770;-1.564;2024-03-22T01:51:11;10.20;;;5.20;;
80117;SDS011;69424;48.770;-1.564;2024-03-22T01:52:00;9.40;;;5.50;;
80117;SDS011;69424;48.770;-1.564;2024-03-22T01:52:48;9.30;;;5.90;;
80117;SDS011;69424;48.770;-1.564;2024-03-22T01:53:36;7.80;;;4.70;;
80117;SDS011;69424;48.770;-1.564;2024-03-22T01:54:25;8.90;;;4.80;;
80117;SDS011;69424;48.770;-1.564;2024-03-22T01:55:13;10.20;;;5.50;;
80117;SDS011;69424;48.770;-1.564;2024-03-22T01:56:01;9.80;;;5.50;;
80117;SDS011;69424;48.770;-1.564;2024-03-22T01:56:49;9.00;;;5.10;;
80117;SDS011;69424;48.770;-1.564;2024-03-22T01:57:37;9.70;;;6.00;;
80117;SDS011;69424;48.770;-1.564;2024-03-22T01:58:26;8.20;;;5.10;;
80117;SDS011;69424;48.770;-1.564;2024-03-22T01:59:14;7.70;;;5.00;;
80117;SDS011;69424;48.770;-1.564;2024-03-22T02:00:03;10.90;;;5.20;;
80117;SDS011;69424;48.770;-1.564;2024-03-22T02:01:00;9.40;;;6.00;;
80117;SDS011;69424;48.770;-1.564;2024-03-22T02:01:49;8.30;;;5.10;;
80117;SDS011;69424;48.770;-1.564;2024-03-22T02:02:37;9.10;;;5.20;;
80117;SDS011;69424;48.770;-1.564;2024-03-22T02:03:25;10.60;;;5.00;;
80117;SDS011;69424;48.770;-1.564;2024-03-22T02:04:13;7.00;;;4.80;;
80117;SDS011;69424;48.770;-1.564;2024-03-22T02:05:14;9.40;;;5.50;;
80117;SDS011;69424;48.770;-1.564;2024-03-22T02:06:03;10.10;;;5.80;;
80117;SDS011;69424;48.770;-1.564;2024-03-22T02:06:52;11.00;;;5.90;;
80117;SDS011;69424;48.770;-1.564;2024-03-22T02:07:39;9.40;;;5.90;;
80117;SDS011;69424;48.770;-1.564;2024-03-22T02:08:27;10.40;;;5.40;;
80117;SDS011;69424;48.770;-1.564;2024-03-22T02:09:15;10.20;;;6.40;;
80117;SDS011;69424;48.770;-1.564;2024-03-22T02:10:03;9.90;;;5.90;;
80117;SDS011;69424;48.770;-1.564;2024-03-22T02:10:52;14.70;;;6.30;;
80117;SDS011;69424;48.770;-1.564;2024-03-22T02:11:40;10.40;;;5.90;;
80117;SDS011;69424;48.770;-1.564;2024-03-22T02:12:28;10.50;;;5.80;;
80117;SDS011;69424;48.770;-1.564;2024-03-22T02:13:16;8.80;;;5.20;;
80117;SDS011;69424;48.770;-1.564;2024-03-22T02:14:04;9.70;;;5.60;;
80117;SDS011;69424;48.770;-1.564;2024-03-22T02:14:51;11.00;;;5.70;;
80117;SDS011;69424;48.770;-1.564;2024-03-22T02:15:39;10.20;;;5.80;;
80117;SDS011;69424;48.770;-1.564;2024-03-22T02:16:27;9.80;;;5.10;;
80117;SDS011;69424;48.770;-1.564;2024-03-22T02:17:15;9.80;;;5.50;;
80117;SDS011;69424;48.770;-1.564;2024-03-22T02:18:06;10.80;;;5.70;;
80117;SDS011;69424;48.770;-1.564;2024-03-22T02:18:53;8.10;;;5.60;;
80117;SDS011;69424;48.770;-1.564;2024-03-22T02:19:42;9.10;;;5.80;;
80117;SDS011;69424;48.770;-1.564;2024-03-22T02:20:30;11.00;;;5.50;;
80117;SDS011;69424;48.770;-1.564;2024-03-22T02:21:18;10.10;;;5.90;;
80117;SDS011;69424;48.770;-1.564;2024-03-22T02:22:06;11.30;;;6.50;;
80117;SDS011;69424;48.770;-1.564;2024-03-22T02:22:54;10.70;;;5.40;;
80117;SDS011;69424;48.770;-1.564;2024-03-22T02:23:42;9.80;;;5.70;;
80117;SDS011;69424;48.770;-1.564;2024-03-22T02:24:29;12.20;;;5.80;;
80117;SDS011;69424;48.770;-1.564;2024-03-22T02:25:17;10.70;;;6.10;;
80117;SDS011;69424;48.770;-1.564;2024-03-22T02:26:05;12.00;;;6.30;;
80117;SDS011;69424;48.770;-1.564;2024-03-22T02:26:54;10.60;;;5.40;;
80117;SDS011;69424;48.770;-1.564;2024-03-22T02:27:42;11.40;;;7.00;;
80117;SDS011;69424;48.770;-1.564;2024-03-22T02:28:31;11.30;;;6.10;;
80117;SDS011;69424;48.770;-1.564;2024-03-22T02:29:20;12.30;;;6.20;;
80117;SDS011;69424;48.770;-1.564;2024-03-22T02:30:08;10.50;;;6.60;;
80117;SDS011;69424;48.770;-1.564;2024-03-22T02:30:56;9.70;;;6.20;;
80117;SDS011;69424;48.770;-1.564;2024-03-22T02:31:43;9.50;;;5.10;;
80117;SDS011;69424;48.770;-1.564;2024-03-22T02:32:31;9.80;;;5.50;;
80117;SDS011;69424;48.770;-1.564;2024-03-22T02:33:19;10.30;;;6.20;;
80117;SDS011;69424;48.770;-1.564;2024-03-22T02:34:07;9.60;;;6.10;;
80117;SDS011;69424;48.770;-1.564;2024-03-22T02:34:55;12.70;;;6.70;;
80117;SDS011;69424;48.770;-1.564;2024-03-22T02:35:48;9.80;;;6.00;;
80117;SDS011;69424;48.770;-1.564;2024-03-22T02:36:37;9.60;;;5.60;;
80117;SDS011;69424;48.770;-1.564;2024-03-22T02:37:25;8.40;;;5.70;;
80117;SDS011;69424;48.770;-1.564;2024-03-22T02:38:12;8.60;;;5.50;;
80117;SDS011;69424;48.770;-1.564;2024-03-22T02:39:00;9.40;;;5.70;;
80117;SDS011;69424;48.770;-1.564;2024-03-22T02:39:48;10.30;;;6.20;;
80117;SDS011;69424;48.770;-1.564;2024-03-22T02:40:36;8.30;;;5.60;;
80117;SDS011;69424;48.770;-1.564;2024-03-22T02:41:24;10.50;;;6.20;;
80117;SDS011;69424;48.770;-1.564;2024-03-22T02:42:12;8.10;;;5.30;;
80117;SDS011;69424;48.770;-1.564;2024-03-22T02:43:00;9.10;;;6.20;;
80117;SDS011;69424;48.770;-1.564;2024-03-22T02:43:48;9.00;;;5.70;;
80117;SDS011;69424;48.770;-1.564;2024-03-22T02:44:36;10.80;;;6.60;;
80117;SDS011;69424;48.770;-1.564;2024-03-22T02:45:30;11.20;;;6.30;;
80117;SDS011;69424;48.770;-1.564;2024-03-22T02:46:18;10.30;;;6.50;;
80117;SDS011;69424;48.770;-1.564;2024-03-22T02:47:06;12.40;;;6.60;;
80117;SDS011;69424;48.770;-1.564;2024-03-22T02:47:54;11.80;;;6.50;;
80117;SDS011;69424;48.770;-1.564;2024-03-22T02:48:42;11.60;;;7.30;;
80117;SDS011;69424;48.770;-1.564;2024-03-22T02:49:30;11.80;;;7.30;;
80117;SDS011;69424;48.770;-1.564;2024-03-22T02:50:18;11.60;;;6.90;;
80117;SDS011;69424;48.770;-1.564;2024-03-22T02:51:05;7.30;;;5.50;;
80117;SDS011;69424;48.770;-1.564;2024-03-22T02:51:53;11.00;;;6.10;;
80117;SDS011;69424;48.770;-1.564;2024-03-22T02:52:41;10.20;;;6.40;;
80117;SDS011;69424;48.770;-1.564;2024-03-22T02:53:29;9.60;;;5.50;;
80117;SDS011;69424;48.770;-1.564;2024-03-22T02:54:17;12.50;;;7.30;;
80117;SDS011;69424;48.770;-1.564;2024-03-22T02:55:05;9.20;;;5.70;;
80117;SDS011;69424;48.770;-1.564;2024-03-22T02:55:53;11.10;;;7.30;;
80117;SDS011;69424;48.770;-1.564;2024-03-22T02:56:40;10.60;;;6.20;;
80117;SDS011;69424;48.770;-1.564;2024-03-22T02:57:28;9.90;;;6.50;;
80117;SDS011;69424;48.770;-1.564;2024-03-22T02:58:16;10.90;;;5.60;;
80117;SDS011;69424;48.770;-1.564;2024-03-22T02:59:05;10.10;;;6.50;;
80117;SDS011;69424;48.770;-1.564;2024-03-22T02:59:53;10.50;;;6.60;;
80117;SDS011;69424;48.770;-1.564;2024-03-22T03:00:41;12.40;;;6.60;;
80117;SDS011;69424;48.770;-1.564;2024-03-22T03:01:29;11.00;;;6.70;;
80117;SDS011;69424;48.770;-1.564;2024-03-22T03:02:17;11.10;;;6.30;;
80117;SDS011;69424;48.770;-1.564;2024-03-22T03:03:05;12.40;;;6.40;;
80117;SDS011;69424;48.770;-1.564;2024-03-22T03:03:53;11.20;;;6.60;;
80117;SDS011;69424;48.770;-1.564;2024-03-22T03:04:41;13.20;;;6.60;;
80117;SDS011;69424;48.770;-1.564;2024-03-22T03:05:29;14.50;;;6.90;;
80117;SDS011;69424;48.770;-1.564;2024-03-22T03:06:17;11.50;;;6.30;;
80117;SDS011;69424;48.770;-1.564;2024-03-22T03:07:07;10.30;;;5.90;;
80117;SDS011;69424;48.770;-1.564;2024-03-22T03:07:55;9.00;;;6.00;;
80117;SDS011;69424;48.770;-1.564;2024-03-22T03:08:43;11.30;;;5.80;;
80117;SDS011;69424;48.770;-1.564;2024-03-22T03:09:31;8.30;;;5.10;;
80117;SDS011;69424;48.770;-1.564;2024-03-22T03:10:20;8.30;;;5.40;;
80117;SDS011;69424;48.770;-1.564;2024-03-22T03:11:07;10.00;;;5.90;;
80117;SDS011;69424;48.770;-1.564;2024-03-22T03:11:55;9.30;;;5.60;;
80117;SDS011;69424;48.770;-1.564;2024-03-22T03:12:43;8.50;;;5.40;;
80117;SDS011;69424;48.770;-1.564;2024-03-22T03:13:31;10.50;;;5.80;;
80117;SDS011;69424;48.770;-1.564;2024-03-22T03:14:19;11.10;;;5.70;;
80117;SDS011;69424;48.770;-1.564;2024-03-22T03:15:07;10.60;;;5.80;;
80117;SDS011;69424;48.770;-1.564;2024-03-22T03:15:55;7.90;;;4.80;;
80117;SDS011;69424;48.770;-1.564;2024-03-22T03:16:42;10.80;;;6.00;;
80117;SDS011;69424;48.770;-1.564;2024-03-22T03:17:30;9.10;;;5.10;;
80117;SDS011;69424;48.770;-1.564;2024-03-22T03:18:18;9.10;;;5.90;;
80117;SDS011;69424;48.770;-1.564;2024-03-22T03:19:06;8.20;;;4.60;;
80117;SDS011;69424;48.770;-1.564;2024-03-22T03:19:54;7.40;;;4.70;;
80117;SDS011;69424;48.770;-1.564;2024-03-22T03:20:42;7.00;;;4.70;;
80117;SDS011;69424;48.770;-1.564;2024-03-22T03:21:29;9.30;;;5.40;;
80117;SDS011;69424;48.770;-1.564;2024-03-22T03:22:17;8.30;;;4.70;;
80117;SDS011;69424;48.770;-1.564;2024-03-22T03:23:05;8.60;;;5.00;;
80117;SDS011;69424;48.770;-1.564;2024-03-22T03:23:53;9.30;;;5.10;;
80117;SDS011;69424;48.770;-1.564;2024-03-22T03:24:41;9.20;;;5.20;;
80117;SDS011;69424;48.770;-1.564;2024-03-22T03:25:29;6.50;;;4.20;;
80117;SDS011;69424;48.770;-1.564;2024-03-22T03:26:16;8.60;;;4.50;;
80117;SDS011;69424;48.770;-1.564;2024-03-22T03:27:04;8.90;;;5.10;;
80117;SDS011;69424;48.770;-1.564;2024-03-22T03:27:52;9.50;;;5.40;;
80117;SDS011;69424;48.770;-1.564;2024-03-22T03:28:40;8.70;;;5.20;;
80117;SDS011;69424;48.770;-1.564;2024-03-22T03:29:28;7.00;;;4.80;;
80117;SDS011;69424;48.770;-1.564;2024-03-22T03:30:16;10.00;;;5.00;;
80117;SDS011;69424;48.770;-1.564;2024-03-22T03:31:04;10.30;;;5.20;;
80117;SDS011;69424;48.770;-1.564;2024-03-22T03:31:52;9.00;;;4.20;;
80117;SDS011;69424;48.770;-1.564;2024-03-22T03:32:40;9.80;;;5.10;;
80117;SDS011;69424;48.770;-1.564;2024-03-22T03:33:28;8.10;;;4.90;;
80117;SDS011;69424;48.770;-1.564;2024-03-22T03:34:16;10.90;;;5.50;;
80117;SDS011;69424;48.770;-1.564;2024-03-22T03:35:04;9.70;;;5.20;;
80117;SDS011;69424;48.770;-1.564;2024-03-22T03:35:52;7.90;;;5.10;;
80117;SDS011;69424;48.770;-1.564;2024-03-22T03:36:40;11.70;;;5.90;;
80117;SDS011;69424;48.770;-1.564;2024-03-22T03:37:28;9.70;;;6.10;;
80117;SDS011;69424;48.770;-1.564;2024-03-22T03:38:16;9.00;;;6.20;;
80117;SDS011;69424;48.770;-1.564;2024-03-22T03:39:04;12.00;;;6.20;;
80117;SDS011;69424;48.770;-1.564;2024-03-22T03:39:52;10.40;;;6.60;;
80117;SDS011;69424;48.770;-1.564;2024-03-22T03:40:40;13.50;;;6.20;;
80117;SDS011;69424;48.770;-1.564;2024-03-22T03:41:28;10.90;;;5.80;;
80117;SDS011;69424;48.770;-1.564;2024-03-22T03:42:15;10.70;;;6.30;;
80117;SDS011;69424;48.770;-1.564;2024-03-22T03:43:03;9.90;;;5.80;;
80117;SDS011;69424;48.770;-1.564;2024-03-22T03:43:51;12.10;;;6.30;;
80117;SDS011;69424;48.770;-1.564;2024-03-22T03:44:39;10.10;;;5.90;;
80117;SDS011;69424;48.770;-1.564;2024-03-22T03:45:29;10.50;;;6.30;;
80117;SDS011;69424;48.770;-1.564;2024-03-22T03:46:16;12.50;;;6.40;;
80117;SDS011;69424;48.770;-1.564;2024-03-22T03:47:04;12.00;;;7.10;;
80117;SDS011;69424;48.770;-1.564;2024-03-22T03:47:52;9.50;;;6.10;;
80117;SDS011;69424;48.770;-1.564;2024-03-22T03:48:40;10.20;;;6.30;;
80117;SDS011;69424;48.770;-1.564;2024-03-22T03:49:28;10.50;;;6.20;;
80117;SDS011;69424;48.770;-1.564;2024-03-22T03:50:16;10.80;;;6.40;;
80117;SDS011;69424;48.770;-1.564;2024-03-22T03:51:04;12.80;;;6.70;;
80117;SDS011;69424;48.770;-1.564;2024-03-22T03:51:52;11.30;;;6.60;;
80117;SDS011;69424;48.770;-1.564;2024-03-22T03:52:40;12.40;;;6.80;;
80117;SDS011;69424;48.770;-1.564;2024-03-22T03:53:31;10.00;;;6.20;;
80117;SDS011;69424;48.770;-1.564;2024-03-22T03:54:18;12.00;;;7.10;;
80117;SDS011;69424;48.770;-1.564;2024-03-22T03:55:06;13.50;;;7.40;;
80117;SDS011;69424;48.770;-1.564;2024-03-22T03:55:54;10.80;;;6.80;;
80117;SDS011;69424;48.770;-1.564;2024-03-22T03:56:43;11.40;;;6.70;;
80117;SDS011;69424;48.770;-1.564;2024-03-22T03:57:30;13.20;;;7.30;;
80117;SDS011;69424;48.770;-1.564;2024-03-22T03:58:18;11.30;;;6.70;;
80117;SDS011;69424;48.770;-1.564;2024-03-22T03:59:06;9.60;;;6.70;;
80117;SDS011;69424;48.770;-1.564;2024-03-22T03:59:54;10.50;;;6.50;;
80117;SDS011;69424;48.770;-1.564;2024-03-22T04:00:42;14.00;;;6.70;;
80117;SDS011;69424;48.770;-1.564;2024-03-22T04:01:30;10.60;;;6.20;;
80117;SDS011;69424;48.770;-1.564;2024-03-22T04:02:18;11.80;;;6.80;;
80117;SDS011;69424;48.770;-1.564;2024-03-22T04:03:06;12.40;;;6.20;;
80117;SDS011;69424;48.770;-1.564;2024-03-22T04:03:54;13.00;;;7.00;;
80117;SDS011;69424;48.770;-1.564;2024-03-22T04:04:42;11.90;;;6.50;;
80117;SDS011;69424;48.770;-1.564;2024-03-22T04:05:30;14.90;;;7.20;;
80117;SDS011;69424;48.770;-1.564;2024-03-22T04:06:18;11.50;;;6.70;;
80117;SDS011;69424;48.770;-1.564;2024-03-22T04:07:05;13.00;;;7.40;;
80117;SDS011;69424;48.770;-1.564;2024-03-22T04:07:53;12.20;;;6.80;;
80117;SDS011;69424;48.770;-1.564;2024-03-22T04:08:42;13.00;;;6.80;;
80117;SDS011;69424;48.770;-1.564;2024-03-22T04:09:30;10.80;;;5.90;;
80117;SDS011;69424;48.770;-1.564;2024-03-22T04:10:18;10.40;;;6.30;;
80117;SDS011;69424;48.770;-1.564;2024-03-22T04:11:06;9.30;;;6.50;;
80117;SDS011;69424;48.770;-1.564;2024-03-22T04:11:54;12.20;;;6.90;;
80117;SDS011;69424;48.770;-1.564;2024-03-22T04:12:42;11.40;;;6.60;;
80117;SDS011;69424;48.770;-1.564;2024-03-22T04:13:32;10.80;;;6.80;;
80117;SDS011;69424;48.770;-1.564;2024-03-22T04:14:20;11.10;;;7.00;;
80117;SDS011;69424;48.770;-1.564;2024-03-22T04:15:08;9.80;;;7.00;;
80117;SDS011;69424;48.770;-1.564;2024-03-22T04:15:58;10.70;;;6.70;;
80117;SDS011;69424;48.770;-1.564;2024-03-22T04:16:47;10.60;;;6.20;;
80117;SDS011;69424;48.770;-1.564;2024-03-22T04:17:35;11.20;;;6.10;;
80117;SDS011;69424;48.770;-1.564;2024-03-22T04:18:24;12.90;;;6.60;;
80117;SDS011;69424;48.770;-1.564;2024-03-22T04:19:12;12.00;;;7.10;;
80117;SDS011;69424;48.770;-1.564;2024-03-22T04:20:00;13.30;;;7.20;;
80117;SDS011;69424;48.770;-1.564;2024-03-22T04:20:54;11.20;;;6.60;;
80117;SDS011;69424;48.770;-1.564;2024-03-22T04:21:43;11.60;;;6.90;;
80117;SDS011;69424;48.770;-1.564;2024-03-22T04:22:31;12.40;;;7.10;;
80117;SDS011;69424;48.770;-1.564;2024-03-22T04:23:19;10.60;;;6.70;;
80117;SDS011;69424;48.770;-1.564;2024-03-22T04:24:07;10.00;;;6.70;;
80117;SDS011;69424;48.770;-1.564;2024-03-22T04:24:55;10.00;;;6.50;;
80117;SDS011;69424;48.770;-1.564;2024-03-22T04:25:51;10.30;;;6.50;;
80117;SDS011;69424;48.770;-1.564;2024-03-22T04:26:42;9.60;;;6.30;;
80117;SDS011;69424;48.770;-1.564;2024-03-22T04:27:30;12.90;;;7.20;;
80117;SDS011;69424;48.770;-1.564;2024-03-22T04:28:17;12.00;;;6.60;;
80117;SDS011;69424;48.770;-1.564;2024-03-22T04:29:05;12.20;;;7.80;;
80117;SDS011;69424;48.770;-1.564;2024-03-22T04:29:53;12.50;;;7.00;;
80117;SDS011;69424;48.770;-1.564;2024-03-22T04:30:41;9.90;;;6.80;;
80117;SDS011;69424;48.770;-1.564;2024-03-22T04:31:29;10.90;;;6.80;;
80117;SDS011;69424;48.770;-1.564;2024-03-22T04:32:17;9.80;;;6.70;;
80117;SDS011;69424;48.770;-1.564;2024-03-22T04:33:05;12.00;;;7.20;;
80117;SDS011;69424;48.770;-1.564;2024-03-22T04:33:52;11.50;;;7.50;;
80117;SDS011;69424;48.770;-1.564;2024-03-22T04:34:43;11.90;;;7.20;;
80117;SDS011;69424;48.770;-1.564;2024-03-22T04:35:32;10.40;;;6.60;;
80117;SDS011;69424;48.770;-1.564;2024-03-22T04:36:19;11.60;;;6.40;;
80117;SDS011;69424;48.770;-1.564;2024-03-22T04:37:07;15.60;;;7.90;;
80117;SDS011;69424;48.770;-1.564;2024-03-22T04:37:56;12.50;;;7.40;;
80117;SDS011;69424;48.770;-1.564;2024-03-22T04:38:44;14.50;;;8.50;;
80117;SDS011;69424;48.770;-1.564;2024-03-22T04:39:32;13.80;;;8.20;;
80117;SDS011;69424;48.770;-1.564;2024-03-22T04:40:20;13.50;;;7.70;;
80117;SDS011;69424;48.770;-1.564;2024-03-22T04:41:08;13.20;;;7.60;;
80117;SDS011;69424;48.770;-1.564;2024-03-22T04:41:56;11.80;;;7.20;;
80117;SDS011;69424;48.770;-1.564;2024-03-22T04:42:44;12.90;;;6.90;;
80117;SDS011;69424;48.770;-1.564;2024-03-22T04:43:32;12.50;;;7.70;;